sensor_id;sensor_type;location;lat;lon;timestamp;P1;durP1;ratioP1;P2;durP2;ratioP2
72674;SDS011;60752;53.962;9.614;2023-07-13T00:10:12;5.67;;;2.60;;
72674;SDS011;60752;53.962;9.614;2023-07-13T00:40:14;7.53;;;3.50;;
72674;SDS011;60752;53.962;9.614;2023-07-13T01:10:17;6.57;;;3.13;;
72674;SDS011;60752;53.962;9.614;2023-07-13T01:40:19;7.37;;;3.07;;
72674;SDS011;60752;53.962;9.614;2023-07-13T02:10:21;7.60;;;4.00;;
72674;SDS011;60752;53.962;9.614;2023-07-13T02:40:22;11.53;;;4.17;;
72674;SDS011;60752;53.962;9.614;2023-07-13T03:10:24;10.37;;;3.80;;
72674;SDS011;60752;53.962;9.614;2023-07-13T03:40:27;12.80;;;4.03;;
72674;SDS011;60752;53.962;9.614;2023-07-13T04:10:29;8.30;;;4.00;;
72674;SDS011;60752;53.962;9.614;2023-07-13T04:40:31;7.63;;;3.00;;
72674;SDS011;60752;53.962;9.614;2023-07-13T05:10:32;7.77;;;2.60;;
72674;SDS011;60752;53.962;9.614;2023-07-13T05:40:34;6.57;;;2.27;;
72674;SDS011;60752;53.962;9.614;2023-07-13T06:10:36;8.90;;;2.30;;
72674;SDS011;60752;53.962;9.614;2023-07-13T06:40:37;6.43;;;1.87;;
72674;SDS011;60752;53.962;9.614;2023-07-13T07:10:39;9.47;;;2.17;;
72674;SDS011;60752;53.962;9.614;2023-07-13T07:40:42;5.90;;;1.83;;
72674;SDS011;60752;53.962;9.614;2023-07-13T08:10:43;6.47;;;1.70;;
72674;SDS011;60752;53.962;9.614;2023-07-13T08:40:48;6.10;;;2.00;;
72674;SDS011;60752;53.962;9.614;2023-07-13T09:10:52;10.87;;;2.23;;
72674;SDS011;60752;53.962;9.614;2023-07-13T09:40:56;6.90;;;1.90;;
72674;SDS011;60752;53.962;9.614;2023-07-13T10:11:00;4.23;;;1.20;;
72674;SDS011;60752;53.962;9.614;2023-07-13T10:41:02;3.30;;;1.00;;
72674;SDS011;60752;53.962;9.614;2023-07-13T11:11:05;4.17;;;1.27;;
72674;SDS011;60752;53.962;9.614;2023-07-13T11:41:27;5.47;;;1.50;;
72674;SDS011;60752;53.962;9.614;2023-07-13T12:11:30;8.00;;;1.30;;
72674;SDS011;60752;53.962;9.614;2023-07-13T12:41:32;4.47;;;1.13;;
72674;SDS011;60752;53.962;9.614;2023-07-13T13:11:34;5.37;;;1.33;;
72674;SDS011;60752;53.962;9.614;2023-07-13T13:41:36;4.63;;;1.20;;
72674;SDS011;60752;53.962;9.614;2023-07-13T14:11:38;4.97;;;1.40;;
72674;SDS011;60752;53.962;9.614;2023-07-13T14:41:40;4.37;;;1.43;;
72674;SDS011;60752;53.962;9.614;2023-07-13T15:11:42;4.33;;;0.87;;
72674;SDS011;60752;53.962;9.614;2023-07-13T15:41:44;3.83;;;1.30;;
72674;SDS011;60752;53.962;9.614;2023-07-13T16:11:46;4.17;;;1.40;;
72674;SDS011;60752;53.962;9.614;2023-07-13T16:41:48;5.18;;;1.27;;
72674;SDS011;60752;53.962;9.614;2023-07-13T17:11:49;7.40;;;1.20;;
72674;SDS011;60752;53.962;9.614;2023-07-13T17:41:51;3.63;;;1.37;;
72674;SDS011;60752;53.962;9.614;2023-07-13T18:11:53;7.93;;;1.50;;
72674;SDS011;60752;53.962;9.614;2023-07-13T18:41:55;4.37;;;1.30;;
72674;SDS011;60752;53.962;9.614;2023-07-13T19:11:57;7.65;;;1.40;;
72674;SDS011;60752;53.962;9.614;2023-07-13T19:41:59;6.37;;;1.70;;
72674;SDS011;60752;53.962;9.614;2023-07-13T20:12:03;5.73;;;1.87;;
72674;SDS011;60752;53.962;9.614;2023-07-13T20:42:08;9.50;;;1.70;;
72674;SDS011;60752;53.962;9.614;2023-07-13T21:12:10;7.83;;;2.10;;
72674;SDS011;60752;53.962;9.614;2023-07-13T21:42:12;4.60;;;1.80;;
72674;SDS011;60752;53.962;9.614;2023-07-13T22:12:14;6.83;;;2.17;;
72674;SDS011;60752;53.962;9.614;2023-07-13T22:42:15;5.77;;;2.30;;
72674;SDS011;60752;53.962;9.614;2023-07-13T23:12:17;6.70;;;2.00;;
72674;SDS011;60752;53.962;9.614;2023-07-13T23:42:18;7.47;;;2.40;;
